Lomond, Canada
Current Conditions -  °F | °C
As of 7:49 PM on Monday 24 Nov 2014 (Local Time) from CYDF Reporting Station
Clear Clear  
Wind Chill: 27°   Ceiling: Unl
Heat Index: 32°   Visibility: 15mi
Dew Point: 23°   Wind: 5mph
Humidity: 69%   Direction: 260°W
Pressure: 30.19"   Gusts: NA
Location:  49.45°N, 57.93°W
Report Text: CYDF 242249Z 26004KT 220V300 15SM 00/M05 A3019 RMK PRESFR SLP226
Loading
Personal Weather Stations






























Interactive Weather Map New forecast layout! Learn more

10-Day Weather Forecast

Advertisements
Track Severe Weather on mobile